sensor_id;sensor_type;location;lat;lon;timestamp;pressure;altitude;pressure_sealevel;temperature;humidity
51986;BME280;38002;53.296;6.600;2023-07-09T00:04:52;101976.56;;;20.58;68.42
51986;BME280;38002;53.296;6.600;2023-07-09T00:09:54;101968.38;;;20.50;68.66
51986;BME280;38002;53.296;6.600;2023-07-09T00:14:54;101966.63;;;20.42;68.72
51986;BME280;38002;53.296;6.600;2023-07-09T00:19:57;101972.97;;;20.36;68.94
51986;BME280;38002;53.296;6.600;2023-07-09T00:24:57;101972.91;;;20.29;69.15
51986;BME280;38002;53.296;6.600;2023-07-09T00:29:58;101971.72;;;20.24;69.45
51986;BME280;38002;53.296;6.600;2023-07-09T00:34:59;101970.84;;;20.17;69.57
51986;BME280;38002;53.296;6.600;2023-07-09T00:40:00;101969.66;;;20.05;72.56
51986;BME280;38002;53.296;6.600;2023-07-09T00:45:00;101972.41;;;20.05;69.67
51986;BME280;38002;53.296;6.600;2023-07-09T00:55:19;101966.34;;;19.94;69.90
51986;BME280;38002;53.296;6.600;2023-07-09T01:00:25;101964.19;;;19.90;70.22
51986;BME280;38002;53.296;6.600;2023-07-09T01:05:28;101957.56;;;19.84;70.17
51986;BME280;38002;53.296;6.600;2023-07-09T01:10:28;101955.56;;;19.78;70.37
51986;BME280;38002;53.296;6.600;2023-07-09T01:15:29;101960.81;;;19.73;70.71
51986;BME280;38002;53.296;6.600;2023-07-09T01:20:30;101962.44;;;19.68;70.94
51986;BME280;38002;53.296;6.600;2023-07-09T01:25:31;101953.94;;;19.63;71.02
51986;BME280;38002;53.296;6.600;2023-07-09T01:30:35;101969.34;;;19.57;71.24
51986;BME280;38002;53.296;6.600;2023-07-09T01:35:38;101968.03;;;19.53;71.22
51986;BME280;38002;53.296;6.600;2023-07-09T01:40:41;101970.50;;;19.48;71.61
51986;BME280;38002;53.296;6.600;2023-07-09T01:45:41;101962.81;;;19.43;71.87
51986;BME280;38002;53.296;6.600;2023-07-09T01:50:43;101959.56;;;19.40;72.01
51986;BME280;38002;53.296;6.600;2023-07-09T01:55:44;101957.19;;;19.37;72.13
51986;BME280;38002;53.296;6.600;2023-07-09T02:00:44;101957.94;;;19.31;72.33
51986;BME280;38002;53.296;6.600;2023-07-09T02:05:45;101958.69;;;19.25;72.52
51986;BME280;38002;53.296;6.600;2023-07-09T02:10:49;101944.66;;;19.20;72.62
51986;BME280;38002;53.296;6.600;2023-07-09T02:15:50;101949.69;;;19.16;72.61
51986;BME280;38002;53.296;6.600;2023-07-09T02:20:51;101954.09;;;19.11;73.04
51986;BME280;38002;53.296;6.600;2023-07-09T02:25:51;101947.41;;;19.05;72.84
51986;BME280;38002;53.296;6.600;2023-07-09T02:30:51;101950.75;;;19.00;73.09
51986;BME280;38002;53.296;6.600;2023-07-09T02:35:53;101953.03;;;18.97;73.42
51986;BME280;38002;53.296;6.600;2023-07-09T02:40:53;101943.78;;;18.90;73.40
51986;BME280;38002;53.296;6.600;2023-07-09T02:45:54;101938.88;;;18.85;73.89
51986;BME280;38002;53.296;6.600;2023-07-09T02:50:54;101939.63;;;18.79;73.83
51986;BME280;38002;53.296;6.600;2023-07-09T02:55:54;101938.69;;;18.72;74.24
51986;BME280;38002;53.296;6.600;2023-07-09T03:00:55;101937.31;;;18.68;74.25
51986;BME280;38002;53.296;6.600;2023-07-09T03:05:55;101935.91;;;18.57;74.31
51986;BME280;38002;53.296;6.600;2023-07-09T03:10:56;101940.94;;;18.54;74.62
51986;BME280;38002;53.296;6.600;2023-07-09T03:15:57;101945.94;;;18.50;74.61
51986;BME280;38002;53.296;6.600;2023-07-09T03:20:58;101947.50;;;18.53;74.96
51986;BME280;38002;53.296;6.600;2023-07-09T03:25:59;101952.44;;;18.57;74.95
51986;BME280;38002;53.296;6.600;2023-07-09T03:31:00;101947.41;;;18.61;74.78
51986;BME280;38002;53.296;6.600;2023-07-09T03:36:00;101947.88;;;18.65;74.45
51986;BME280;38002;53.296;6.600;2023-07-09T03:41:01;101958.72;;;18.66;74.69
51986;BME280;38002;53.296;6.600;2023-07-09T03:46:02;101960.63;;;18.66;74.77
51986;BME280;38002;53.296;6.600;2023-07-09T03:51:02;101955.28;;;18.64;74.62
51986;BME280;38002;53.296;6.600;2023-07-09T03:56:03;101957.22;;;18.64;75.07
51986;BME280;38002;53.296;6.600;2023-07-09T04:01:04;101951.69;;;18.64;75.01
51986;BME280;38002;53.296;6.600;2023-07-09T04:06:05;101953.03;;;18.68;75.04
51986;BME280;38002;53.296;6.600;2023-07-09T04:11:05;101949.72;;;18.72;74.91
51986;BME280;38002;53.296;6.600;2023-07-09T04:16:06;101954.84;;;18.75;75.03
51986;BME280;38002;53.296;6.600;2023-07-09T04:21:06;101945.31;;;18.78;74.74
51986;BME280;38002;53.296;6.600;2023-07-09T04:26:10;101946.47;;;18.83;74.99
51986;BME280;38002;53.296;6.600;2023-07-09T04:31:12;101950.72;;;18.86;74.77
51986;BME280;38002;53.296;6.600;2023-07-09T04:36:12;101950.16;;;18.90;74.69
51986;BME280;38002;53.296;6.600;2023-07-09T04:41:13;101963.59;;;18.93;74.52
51986;BME280;38002;53.296;6.600;2023-07-09T04:46:14;101960.44;;;18.96;74.62
51986;BME280;38002;53.296;6.600;2023-07-09T04:51:14;101955.41;;;19.00;74.69
51986;BME280;38002;53.296;6.600;2023-07-09T04:56:15;101955.00;;;19.03;74.91
51986;BME280;38002;53.296;6.600;2023-07-09T05:01:15;101956.56;;;19.06;74.69
51986;BME280;38002;53.296;6.600;2023-07-09T05:06:16;101951.31;;;19.11;74.90
51986;BME280;38002;53.296;6.600;2023-07-09T05:11:16;101965.19;;;19.17;75.05
51986;BME280;38002;53.296;6.600;2023-07-09T05:16:17;101955.09;;;19.24;75.14
51986;BME280;38002;53.296;6.600;2023-07-09T05:21:17;101956.91;;;19.32;74.60
51986;BME280;38002;53.296;6.600;2023-07-09T05:26:18;101969.72;;;19.39;75.16
51986;BME280;38002;53.296;6.600;2023-07-09T05:31:18;101952.91;;;19.49;74.98
51986;BME280;38002;53.296;6.600;2023-07-09T05:36:19;101967.03;;;19.61;75.15
51986;BME280;38002;53.296;6.600;2023-07-09T05:41:20;101959.50;;;19.69;74.94
51986;BME280;38002;53.296;6.600;2023-07-09T05:46:22;101955.38;;;19.80;75.04
51986;BME280;38002;53.296;6.600;2023-07-09T05:51:23;101959.34;;;19.92;74.96
51986;BME280;38002;53.296;6.600;2023-07-09T05:56:24;101971.97;;;20.01;77.28
51986;BME280;38002;53.296;6.600;2023-07-09T06:01:25;101956.63;;;20.20;74.97
51986;BME280;38002;53.296;6.600;2023-07-09T06:06:27;101967.03;;;20.39;74.88
51986;BME280;38002;53.296;6.600;2023-07-09T06:11:27;101976.56;;;20.58;74.78
51986;BME280;38002;53.296;6.600;2023-07-09T06:16:28;101953.69;;;20.70;74.52
51986;BME280;38002;53.296;6.600;2023-07-09T06:21:28;101972.72;;;20.87;74.36
51986;BME280;38002;53.296;6.600;2023-07-09T06:26:28;101980.44;;;20.98;74.25
51986;BME280;38002;53.296;6.600;2023-07-09T06:31:29;101980.25;;;21.06;74.05
51986;BME280;38002;53.296;6.600;2023-07-09T06:36:29;101986.31;;;21.16;74.01
51986;BME280;38002;53.296;6.600;2023-07-09T06:41:30;101984.91;;;21.33;74.24
51986;BME280;38002;53.296;6.600;2023-07-09T06:46:32;101989.28;;;21.55;73.64
51986;BME280;38002;53.296;6.600;2023-07-09T06:51:33;101980.19;;;21.74;73.72
51986;BME280;38002;53.296;6.600;2023-07-09T06:56:34;101991.16;;;21.96;73.22
51986;BME280;38002;53.296;6.600;2023-07-09T07:01:35;101996.53;;;22.17;72.88
51986;BME280;38002;53.296;6.600;2023-07-09T07:06:35;101991.22;;;22.29;72.49
51986;BME280;38002;53.296;6.600;2023-07-09T07:11:36;101995.25;;;22.39;72.65
51986;BME280;38002;53.296;6.600;2023-07-09T07:16:36;101993.13;;;22.54;72.56
51986;BME280;38002;53.296;6.600;2023-07-09T07:21:37;101996.78;;;22.75;72.25
51986;BME280;38002;53.296;6.600;2023-07-09T07:26:37;101993.13;;;23.00;71.89
51986;BME280;38002;53.296;6.600;2023-07-09T07:31:38;101997.75;;;23.33;71.40
51986;BME280;38002;53.296;6.600;2023-07-09T07:36:38;101996.16;;;23.63;70.45
51986;BME280;38002;53.296;6.600;2023-07-09T07:41:39;101994.50;;;23.93;70.02
51986;BME280;38002;53.296;6.600;2023-07-09T07:46:40;102000.16;;;24.18;69.21
51986;BME280;38002;53.296;6.600;2023-07-09T07:51:40;102017.31;;;24.40;68.84
51986;BME280;38002;53.296;6.600;2023-07-09T07:56:41;102019.34;;;24.51;68.50
51986;BME280;38002;53.296;6.600;2023-07-09T08:01:42;102022.47;;;24.68;67.85
51986;BME280;38002;53.296;6.600;2023-07-09T08:06:42;102021.53;;;24.99;67.05
51986;BME280;38002;53.296;6.600;2023-07-09T08:11:43;102011.78;;;25.33;66.42
51986;BME280;38002;53.296;6.600;2023-07-09T08:16:43;102014.66;;;25.62;65.30
51986;BME280;38002;53.296;6.600;2023-07-09T08:21:43;102004.50;;;25.98;65.18
51986;BME280;38002;53.296;6.600;2023-07-09T08:26:44;102003.22;;;26.30;64.77
51986;BME280;38002;53.296;6.600;2023-07-09T08:31:44;102017.94;;;26.49;64.13
51986;BME280;38002;53.296;6.600;2023-07-09T08:36:45;102014.31;;;26.60;63.08
51986;BME280;38002;53.296;6.600;2023-07-09T08:52:36;102012.06;;;27.27;62.84
51986;BME280;38002;53.296;6.600;2023-07-09T08:57:41;102023.09;;;27.57;62.65
51986;BME280;38002;53.296;6.600;2023-07-09T09:02:58;102007.78;;;27.87;61.73
51986;BME280;38002;53.296;6.600;2023-07-09T09:08:29;102014.00;;;28.18;60.36
51986;BME280;38002;53.296;6.600;2023-07-09T09:13:30;102012.06;;;28.35;59.60
51986;BME280;38002;53.296;6.600;2023-07-09T09:18:41;102015.16;;;28.50;60.13
51986;BME280;38002;53.296;6.600;2023-07-09T09:23:43;102016.69;;;28.58;58.73
51986;BME280;38002;53.296;6.600;2023-07-09T09:28:45;102018.19;;;28.77;60.24
51986;BME280;38002;53.296;6.600;2023-07-09T09:33:48;102032.69;;;28.91;59.54
51986;BME280;38002;53.296;6.600;2023-07-09T09:38:50;102023.41;;;29.07;59.45
51986;BME280;38002;53.296;6.600;2023-07-09T09:43:52;102017.00;;;29.28;58.50
51986;BME280;38002;53.296;6.600;2023-07-09T09:48:55;102027.75;;;29.53;58.79
51986;BME280;38002;53.296;6.600;2023-07-09T09:54:01;102036.41;;;29.73;57.76
51986;BME280;38002;53.296;6.600;2023-07-09T09:59:03;102042.00;;;29.90;57.61
51986;BME280;38002;53.296;6.600;2023-07-09T10:04:05;102039.41;;;30.10;56.79
51986;BME280;38002;53.296;6.600;2023-07-09T10:35:38;102049.63;;;31.48;52.98
51986;BME280;38002;53.296;6.600;2023-07-09T10:40:48;102043.59;;;31.67;51.19
51986;BME280;38002;53.296;6.600;2023-07-09T10:45:55;102036.56;;;31.74;50.16
51986;BME280;38002;53.296;6.600;2023-07-09T10:50:58;102036.91;;;31.88;50.97
51986;BME280;38002;53.296;6.600;2023-07-09T10:56:07;102036.94;;;31.98;49.24
51986;BME280;38002;53.296;6.600;2023-07-09T11:01:14;102040.06;;;32.07;48.81
51986;BME280;38002;53.296;6.600;2023-07-09T11:06:38;102033.38;;;32.13;48.01
51986;BME280;38002;53.296;6.600;2023-07-09T11:11:45;102013.09;;;32.21;48.10
51986;BME280;38002;53.296;6.600;2023-07-09T11:16:48;102007.22;;;32.22;48.51
51986;BME280;38002;53.296;6.600;2023-07-09T11:22:04;102003.53;;;32.32;45.36
51986;BME280;38002;53.296;6.600;2023-07-09T11:27:17;101996.25;;;32.36;47.15
51986;BME280;38002;53.296;6.600;2023-07-09T11:32:20;101992.28;;;32.32;48.28
51986;BME280;38002;53.296;6.600;2023-07-09T11:37:25;101985.81;;;32.31;43.69
51986;BME280;38002;53.296;6.600;2023-07-09T11:52:43;101991.16;;;32.58;46.03
51986;BME280;38002;53.296;6.600;2023-07-09T11:57:53;101989.22;;;32.64;44.61
51986;BME280;38002;53.296;6.600;2023-07-09T12:02:53;101997.69;;;32.74;45.42
51986;BME280;38002;53.296;6.600;2023-07-09T12:07:55;101993.13;;;32.98;44.86
51986;BME280;38002;53.296;6.600;2023-07-09T12:12:58;101998.50;;;33.00;44.62
51986;BME280;38002;53.296;6.600;2023-07-09T12:18:02;102001.00;;;33.01;43.83
51986;BME280;38002;53.296;6.600;2023-07-09T12:23:32;101986.97;;;32.91;43.04
51986;BME280;38002;53.296;6.600;2023-07-09T12:28:32;101980.16;;;33.12;44.80
51986;BME280;38002;53.296;6.600;2023-07-09T12:33:34;101986.25;;;33.45;43.20
51986;BME280;38002;53.296;6.600;2023-07-09T12:38:46;101984.78;;;33.67;42.45
51986;BME280;38002;53.296;6.600;2023-07-09T12:43:47;101978.53;;;33.76;43.04
51986;BME280;38002;53.296;6.600;2023-07-09T12:48:48;101975.41;;;33.82;42.90
51986;BME280;38002;53.296;6.600;2023-07-09T12:54:02;101959.88;;;33.85;42.50
51986;BME280;38002;53.296;6.600;2023-07-09T12:59:17;101970.97;;;33.66;43.27
51986;BME280;38002;53.296;6.600;2023-07-09T13:04:18;101963.69;;;33.50;43.30
51986;BME280;38002;53.296;6.600;2023-07-09T13:09:21;101959.50;;;33.37;44.14
51986;BME280;38002;53.296;6.600;2023-07-09T13:14:26;101952.75;;;33.33;43.92
51986;BME280;38002;53.296;6.600;2023-07-09T13:19:26;101955.84;;;33.32;43.87
51986;BME280;38002;53.296;6.600;2023-07-09T13:24:31;101955.00;;;33.31;43.57
51986;BME280;38002;53.296;6.600;2023-07-09T13:29:54;101962.13;;;33.13;44.75
51986;BME280;38002;53.296;6.600;2023-07-09T13:35:01;101957.59;;;33.12;44.21
51986;BME280;38002;53.296;6.600;2023-07-09T13:40:02;101944.63;;;33.06;44.57
51986;BME280;38002;53.296;6.600;2023-07-09T13:45:02;101945.19;;;33.13;44.67
51986;BME280;38002;53.296;6.600;2023-07-09T13:50:03;101930.22;;;33.23;44.12
51986;BME280;38002;53.296;6.600;2023-07-09T13:55:04;101922.31;;;33.30;44.11
51986;BME280;38002;53.296;6.600;2023-07-09T14:00:05;101901.38;;;33.41;43.83
51986;BME280;38002;53.296;6.600;2023-07-09T14:05:10;101892.06;;;33.46;43.68
51986;BME280;38002;53.296;6.600;2023-07-09T14:10:13;101887.63;;;33.29;44.29
51986;BME280;38002;53.296;6.600;2023-07-09T14:15:19;101857.44;;;33.35;44.36
51986;BME280;38002;53.296;6.600;2023-07-09T14:20:20;101854.34;;;33.32;44.00
51986;BME280;38002;53.296;6.600;2023-07-09T14:25:23;101842.53;;;33.24;43.96
51986;BME280;38002;53.296;6.600;2023-07-09T14:30:25;101828.50;;;33.09;43.86
51986;BME280;38002;53.296;6.600;2023-07-09T14:35:26;101833.69;;;32.72;44.23
51986;BME280;38002;53.296;6.600;2023-07-09T14:40:27;101834.31;;;32.28;45.12
51986;BME280;38002;53.296;6.600;2023-07-09T14:45:28;101823.06;;;31.83;45.35
51986;BME280;38002;53.296;6.600;2023-07-09T14:50:30;101845.75;;;31.41;46.36
51986;BME280;38002;53.296;6.600;2023-07-09T14:55:31;101827.03;;;30.99;47.42
51986;BME280;38002;53.296;6.600;2023-07-09T15:00:31;101819.53;;;30.58;48.26
51986;BME280;38002;53.296;6.600;2023-07-09T15:05:32;101830.13;;;30.14;48.95
51986;BME280;38002;53.296;6.600;2023-07-09T15:10:32;101879.34;;;29.68;49.86
51986;BME280;38002;53.296;6.600;2023-07-09T15:15:33;101916.44;;;29.10;50.41
51986;BME280;38002;53.296;6.600;2023-07-09T15:20:33;101919.81;;;28.40;50.92
51986;BME280;38002;53.296;6.600;2023-07-09T15:25:34;101913.88;;;27.75;51.61
51986;BME280;38002;53.296;6.600;2023-07-09T15:30:34;101902.91;;;27.17;52.60
51986;BME280;38002;53.296;6.600;2023-07-09T15:35:37;101910.31;;;26.76;53.12
51986;BME280;38002;53.296;6.600;2023-07-09T15:40:37;101922.09;;;26.32;53.18
51986;BME280;38002;53.296;6.600;2023-07-09T15:45:42;101945.00;;;25.92;52.90
51986;BME280;38002;53.296;6.600;2023-07-09T15:50:44;102013.00;;;25.55;53.73
51986;BME280;38002;53.296;6.600;2023-07-09T15:55:44;102046.16;;;25.20;54.38
51986;BME280;38002;53.296;6.600;2023-07-09T16:00:44;102071.31;;;24.82;55.23
51986;BME280;38002;53.296;6.600;2023-07-09T16:05:45;102107.59;;;24.37;56.77
51986;BME280;38002;53.296;6.600;2023-07-09T16:10:46;102147.59;;;23.79;62.40
51986;BME280;38002;53.296;6.600;2023-07-09T16:15:47;102151.72;;;23.50;58.66
51986;BME280;38002;53.296;6.600;2023-07-09T16:20:48;102108.78;;;23.13;60.06
51986;BME280;38002;53.296;6.600;2023-07-09T16:25:48;102052.22;;;22.55;67.90
51986;BME280;38002;53.296;6.600;2023-07-09T16:30:49;102020.41;;;22.31;62.17
51986;BME280;38002;53.296;6.600;2023-07-09T16:35:55;101953.47;;;22.08;63.21
51986;BME280;38002;53.296;6.600;2023-07-09T16:40:56;101912.47;;;21.84;64.24
51986;BME280;38002;53.296;6.600;2023-07-09T16:45:56;101921.81;;;21.63;66.16
51986;BME280;38002;53.296;6.600;2023-07-09T16:50:56;101926.00;;;21.46;66.93
51986;BME280;38002;53.296;6.600;2023-07-09T16:55:58;101899.38;;;21.38;67.09
51986;BME280;38002;53.296;6.600;2023-07-09T17:00:58;101887.66;;;21.30;68.18
51986;BME280;38002;53.296;6.600;2023-07-09T17:05:59;101889.31;;;21.24;68.54
51986;BME280;38002;53.296;6.600;2023-07-09T17:11:01;101870.59;;;21.26;69.94
51986;BME280;38002;53.296;6.600;2023-07-09T17:16:03;102143.22;;;21.22;70.37
51986;BME280;38002;53.296;6.600;2023-07-09T17:21:04;102181.47;;;20.97;71.01
51986;BME280;38002;53.296;6.600;2023-07-09T17:26:04;102184.03;;;20.77;71.99
51986;BME280;38002;53.296;6.600;2023-07-09T17:31:05;102152.19;;;20.60;73.09
51986;BME280;38002;53.296;6.600;2023-07-09T17:36:09;102128.41;;;20.45;73.24
51986;BME280;38002;53.296;6.600;2023-07-09T17:41:12;102104.59;;;20.44;73.74
51986;BME280;38002;53.296;6.600;2023-07-09T17:46:14;102127.75;;;20.43;74.22
51986;BME280;38002;53.296;6.600;2023-07-09T17:51:15;102082.09;;;20.47;74.20
51986;BME280;38002;53.296;6.600;2023-07-09T17:56:21;102104.00;;;20.48;75.50
51986;BME280;38002;53.296;6.600;2023-07-09T18:01:24;102122.03;;;20.44;75.56
51986;BME280;38002;53.296;6.600;2023-07-09T18:06:25;102097.53;;;20.41;76.19
51986;BME280;38002;53.296;6.600;2023-07-09T18:11:27;102097.34;;;20.43;75.99
51986;BME280;38002;53.296;6.600;2023-07-09T18:16:28;102117.94;;;20.40;76.29
51986;BME280;38002;53.296;6.600;2023-07-09T18:21:29;102161.22;;;20.33;76.76
51986;BME280;38002;53.296;6.600;2023-07-09T18:26:30;102166.56;;;20.34;76.57
51986;BME280;38002;53.296;6.600;2023-07-09T18:31:31;102176.34;;;20.37;77.27
51986;BME280;38002;53.296;6.600;2023-07-09T18:36:31;102166.44;;;20.43;76.88
51986;BME280;38002;53.296;6.600;2023-07-09T18:41:32;102123.94;;;20.44;77.11
51986;BME280;38002;53.296;6.600;2023-07-09T18:46:32;102092.50;;;20.45;77.60
51986;BME280;38002;53.296;6.600;2023-07-09T18:51:33;102103.34;;;20.46;77.90
51986;BME280;38002;53.296;6.600;2023-07-09T18:56:33;102104.00;;;20.48;77.76
51986;BME280;38002;53.296;6.600;2023-07-09T19:01:34;102100.56;;;20.46;78.06
51986;BME280;38002;53.296;6.600;2023-07-09T19:06:34;102092.28;;;20.46;78.13
51986;BME280;38002;53.296;6.600;2023-07-09T19:11:35;102091.41;;;20.46;78.58
51986;BME280;38002;53.296;6.600;2023-07-09T19:16:36;102086.31;;;20.43;78.72
51986;BME280;38002;53.296;6.600;2023-07-09T19:21:36;102067.41;;;20.46;79.01
51986;BME280;38002;53.296;6.600;2023-07-09T19:26:37;102071.22;;;20.45;79.55
51986;BME280;38002;53.296;6.600;2023-07-09T19:31:39;102068.69;;;20.44;79.74
51986;BME280;38002;53.296;6.600;2023-07-09T19:36:41;102066.69;;;20.37;80.05
51986;BME280;38002;53.296;6.600;2023-07-09T19:41:42;102064.31;;;20.34;80.46
51986;BME280;38002;53.296;6.600;2023-07-09T19:46:42;102058.34;;;20.31;80.43
51986;BME280;38002;53.296;6.600;2023-07-09T19:51:43;102067.38;;;20.25;80.94
51986;BME280;38002;53.296;6.600;2023-07-09T19:56:45;102045.50;;;20.23;80.92
51986;BME280;38002;53.296;6.600;2023-07-09T20:01:49;102034.63;;;20.22;81.12
51986;BME280;38002;53.296;6.600;2023-07-09T20:06:50;102038.84;;;20.18;81.21
51986;BME280;38002;53.296;6.600;2023-07-09T20:11:51;102038.38;;;20.14;81.49
51986;BME280;38002;53.296;6.600;2023-07-09T20:16:51;102028.97;;;20.09;81.49
51986;BME280;38002;53.296;6.600;2023-07-09T20:21:51;102031.28;;;20.05;81.80
51986;BME280;38002;53.296;6.600;2023-07-09T20:26:52;102024.22;;;20.03;81.80
51986;BME280;38002;53.296;6.600;2023-07-09T20:31:53;102035.97;;;19.90;86.06
51986;BME280;38002;53.296;6.600;2023-07-09T20:36:55;102049.13;;;19.88;82.03
51986;BME280;38002;53.296;6.600;2023-07-09T20:41:56;102050.06;;;19.80;82.20
51986;BME280;38002;53.296;6.600;2023-07-09T20:46:57;102042.88;;;19.79;82.18
51986;BME280;38002;53.296;6.600;2023-07-09T20:51:58;102026.03;;;19.74;82.26
51986;BME280;38002;53.296;6.600;2023-07-09T20:56:59;102040.41;;;19.70;82.62
51986;BME280;38002;53.296;6.600;2023-07-09T21:02:18;102042.88;;;19.65;83.42
51986;BME280;38002;53.296;6.600;2023-07-09T21:07:18;102029.66;;;19.60;82.68
51986;BME280;38002;53.296;6.600;2023-07-09T21:12:19;102032.81;;;19.57;82.96
51986;BME280;38002;53.296;6.600;2023-07-09T21:17:21;102062.47;;;19.55;82.80
51986;BME280;38002;53.296;6.600;2023-07-09T21:22:23;102084.19;;;19.58;82.50
51986;BME280;38002;53.296;6.600;2023-07-09T21:27:24;102064.38;;;19.55;86.41
51986;BME280;38002;53.296;6.600;2023-07-09T21:32:28;102065.53;;;19.60;82.92
51986;BME280;38002;53.296;6.600;2023-07-09T21:37:30;102061.72;;;19.61;82.73
51986;BME280;38002;53.296;6.600;2023-07-09T21:42:30;102072.78;;;19.61;82.90
51986;BME280;38002;53.296;6.600;2023-07-09T21:47:31;102090.38;;;19.60;83.20
51986;BME280;38002;53.296;6.600;2023-07-09T21:52:31;102088.66;;;19.59;83.25
51986;BME280;38002;53.296;6.600;2023-07-09T21:57:32;102096.94;;;19.59;83.37
51986;BME280;38002;53.296;6.600;2023-07-09T22:02:32;102102.25;;;19.61;83.26
51986;BME280;38002;53.296;6.600;2023-07-09T22:07:33;102064.59;;;19.53;83.45
51986;BME280;38002;53.296;6.600;2023-07-09T22:12:33;102082.94;;;19.61;83.53
51986;BME280;38002;53.296;6.600;2023-07-09T22:17:34;102083.81;;;19.61;83.74
51986;BME280;38002;53.296;6.600;2023-07-09T22:22:34;102089.31;;;19.61;83.73
51986;BME280;38002;53.296;6.600;2023-07-09T22:27:36;102085.25;;;19.57;86.47
51986;BME280;38002;53.296;6.600;2023-07-09T22:32:37;102097.59;;;19.61;83.58
51986;BME280;38002;53.296;6.600;2023-07-09T22:37:40;102102.09;;;19.62;83.38
51986;BME280;38002;53.296;6.600;2023-07-09T22:42:40;102093.13;;;19.60;83.46
51986;BME280;38002;53.296;6.600;2023-07-09T22:47:41;102088.38;;;19.54;83.79
51986;BME280;38002;53.296;6.600;2023-07-09T22:52:43;102082.38;;;19.51;83.96
51986;BME280;38002;53.296;6.600;2023-07-09T22:57:44;102085.34;;;19.49;84.07
51986;BME280;38002;53.296;6.600;2023-07-09T23:02:45;102081.91;;;19.47;83.80
51986;BME280;38002;53.296;6.600;2023-07-09T23:07:45;102092.06;;;19.46;84.11
51986;BME280;38002;53.296;6.600;2023-07-09T23:12:46;102079.53;;;19.44;84.32
51986;BME280;38002;53.296;6.600;2023-07-09T23:17:47;102084.88;;;19.45;84.34
51986;BME280;38002;53.296;6.600;2023-07-09T23:22:49;102095.03;;;19.45;84.67
51986;BME280;38002;53.296;6.600;2023-07-09T23:27:50;102103.13;;;19.46;84.50
51986;BME280;38002;53.296;6.600;2023-07-09T23:32:51;102096.75;;;19.46;84.73
51986;BME280;38002;53.296;6.600;2023-07-09T23:37:52;102104.19;;;19.45;85.03
51986;BME280;38002;53.296;6.600;2023-07-09T23:42:53;102103.13;;;19.46;84.79
51986;BME280;38002;53.296;6.600;2023-07-09T23:47:55;102095.69;;;19.47;84.88
51986;BME280;38002;53.296;6.600;2023-07-09T23:52:57;102080.19;;;19.46;84.81
51986;BME280;38002;53.296;6.600;2023-07-09T23:57:58;102081.91;;;19.47;85.17
